Time;durP1;ratioP1;P1;durP2;ratioP2;P2;SDS_P1;SDS_P2;PMS_P1;PMS_P2;Temp;Humidity;BMP_temperature;BMP_pressure;BME280_temperature;BME280_humidity;BME280_pressure;Samples;Min_cycle;Max_cycle;Signal;HPM_P1;HPM_P2
2023/03/20 00:01:21;;;;;;;1999.90;999.90;;;7.20;99.90;;;;;;5063120;28;20048;-71
2023/03/20 00:03:47;;;;;;;1999.90;999.90;;;7.20;99.90;;;;;;5048904;28;20468;-70
2023/03/20 00:06:24;;;;;;;1999.90;999.90;;;7.20;99.90;;;;;;5066138;28;20136;-70
2023/03/20 00:08:52;;;;;;;1999.90;999.90;;;7.20;99.90;;;;;;5063844;28;20047;-70
2023/03/20 00:11:29;;;;;;;1999.90;999.90;;;7.20;99.90;;;;;;5066066;28;20047;-70
2023/03/20 00:14:06;;;;;;;1999.90;999.90;;;7.20;99.90;;;;;;5063378;28;20051;-71
2023/03/20 00:16:35;;;;;;;1999.90;999.90;;;7.20;99.90;;;;;;5064861;28;20044;-71
2023/03/20 00:19:02;;;;;;;1999.90;999.90;;;7.20;99.90;;;;;;5063815;28;20045;-70
2023/03/20 00:21:28;;;;;;;1999.90;999.90;;;7.20;99.90;;;;;;5064804;28;20056;-71
2023/03/20 00:23:55;;;;;;;1999.90;999.90;;;7.20;99.90;;;;;;5048076;28;20040;-70
2023/03/20 00:26:32;;;;;;;1999.90;999.90;;;7.30;99.90;;;;;;5065868;28;20045;-71
2023/03/20 00:28:58;;;;;;;1999.90;999.90;;;7.30;99.90;;;;;;5065414;28;20128;-71
2023/03/20 00:31:36;;;;;;;1999.90;999.90;;;7.20;99.90;;;;;;5063930;28;20115;-70
2023/03/20 00:34:11;;;;;;;1999.90;999.90;;;7.30;99.90;;;;;;5066439;28;20406;-71
2023/03/20 00:36:36;;;;;;;1999.90;999.90;;;7.30;99.90;;;;;;5063332;28;20560;-70
2023/03/20 00:39:03;;;;;;;1999.90;999.90;;;7.30;99.90;;;;;;5048942;28;20178;-71
2023/03/20 00:41:41;;;;;;;1999.90;999.90;;;7.30;99.90;;;;;;5065200;28;20049;-70
2023/03/20 00:44:19;;;;;;;1999.90;999.90;;;7.30;99.90;;;;;;5049008;28;20230;-71
2023/03/20 00:46:52;;;;;;;1999.90;999.90;;;7.30;99.90;;;;;;5065368;28;20450;-70
2023/03/20 00:49:21;;;;;;;1999.90;999.90;;;7.20;99.90;;;;;;5065077;28;20044;-71
2023/03/20 00:51:47;;;;;;;1999.90;999.90;;;7.30;99.90;;;;;;5061247;28;20042;-71
2023/03/20 00:54:16;;;;;;;1999.90;999.90;;;7.30;99.90;;;;;;5049441;28;20036;-70
2023/03/20 00:56:55;;;;;;;1999.90;999.90;;;7.30;99.90;;;;;;5065592;28;20040;-70
2023/03/20 00:59:24;;;;;;;1999.90;999.90;;;7.30;99.90;;;;;;5063845;28;20509;-70
2023/03/20 01:01:50;;;;;;;1999.90;999.90;;;7.30;99.90;;;;;;5064598;28;20413;-70
2023/03/20 01:04:18;;;;;;;1999.90;999.90;;;7.30;99.90;;;;;;5063900;28;20115;-71
2023/03/20 01:06:44;;;;;;;1999.90;999.90;;;7.30;99.90;;;;;;5061706;28;20090;-71
2023/03/20 01:09:10;;;;;;;1999.90;999.90;;;7.30;99.90;;;;;;5062961;28;20048;-70
2023/03/20 01:11:37;;;;;;;1999.90;999.90;;;7.30;99.90;;;;;;5047896;28;20427;-70
2023/03/20 01:14:03;;;;;;;1999.90;999.90;;;7.30;99.90;;;;;;5062289;28;20032;-70
2023/03/20 01:16:29;;;;;;;1999.90;999.90;;;7.30;99.90;;;;;;5064475;28;20036;-70
2023/03/20 01:18:55;;;;;;;1999.90;999.90;;;7.30;99.90;;;;;;5064475;28;20515;-71
2023/03/20 01:21:21;;;;;;;1999.90;999.90;;;7.40;99.90;;;;;;5048424;28;20052;-71
2023/03/20 01:23:47;;;;;;;1999.90;999.90;;;7.30;99.90;;;;;;5064698;28;20332;-70
2023/03/20 01:26:33;;;;;;;1999.90;999.90;;;7.30;99.90;;;;;;5064436;28;20373;-71
2023/03/20 01:28:59;;;;;;;1999.90;999.90;;;7.40;99.90;;;;;;5045869;28;20041;-70
2023/03/20 01:31:25;;;;;;;1999.90;999.90;;;7.40;99.90;;;;;;5064148;28;20048;-70
2023/03/20 01:33:51;;;;;;;1999.90;999.90;;;7.30;99.90;;;;;;5046179;28;20051;-70
2023/03/20 01:36:21;;;;;;;1999.90;999.90;;;7.30;99.90;;;;;;5063816;28;20044;-71
2023/03/20 01:38:54;;;;;;;1999.90;999.90;;;7.30;99.90;;;;;;5047758;28;20338;-70
2023/03/20 01:41:21;;;;;;;1999.90;999.90;;;7.30;99.90;;;;;;5062782;28;20048;-70
2023/03/20 01:43:47;;;;;;;1999.90;999.90;;;7.40;99.90;;;;;;5063166;28;20107;-71
2023/03/20 01:46:28;;;;;;;1999.90;999.90;;;7.40;99.90;;;;;;5062275;28;20078;-71
2023/03/20 01:49:20;;;;;;;1999.90;999.90;;;7.40;99.90;;;;;;5062297;28;20036;-71
2023/03/20 01:51:50;;;;;;;1999.90;999.90;;;7.40;99.90;;;;;;5035287;28;20159;-70
2023/03/20 01:54:17;;;;;;;1999.90;999.90;;;7.40;99.90;;;;;;5058775;28;20364;-70
2023/03/20 01:56:47;;;;;;;1999.90;999.90;;;7.40;99.90;;;;;;5063001;28;20400;-70
2023/03/20 01:59:28;;;;;;;1999.90;999.90;;;7.40;99.90;;;;;;5061973;28;20400;-70
2023/03/20 02:01:55;;;;;;;1999.90;999.90;;;7.40;99.90;;;;;;5061974;28;20040;-70
2023/03/20 02:04:26;;;;;;;1999.90;999.90;;;7.40;99.90;;;;;;5047217;28;20040;-71
2023/03/20 02:06:51;;;;;;;1999.90;999.90;;;7.50;99.90;;;;;;5043801;28;20040;-71
2023/03/20 02:09:18;;;;;;;1999.90;999.90;;;7.40;99.90;;;;;;5063843;28;20055;-71
2023/03/20 02:11:45;;;;;;;1999.90;999.90;;;7.50;99.90;;;;;;5064041;28;20407;-70
2023/03/20 02:14:12;;;;;;;1999.90;999.90;;;7.50;99.90;;;;;;5061304;28;20044;-68
2023/03/20 02:16:37;;;;;;;1999.90;999.90;;;7.50;99.90;;;;;;5065804;28;20044;-69
2023/03/20 02:19:06;;;;;;;1999.90;999.90;;;7.50;99.90;;;;;;5045691;28;20048;-69
2023/03/20 02:22:34;;;;;;;1999.90;999.90;;;7.50;99.90;;;;;;5063129;28;20098;-69
2023/03/20 02:25:27;;;;;;;1999.90;999.90;;;7.50;99.90;;;;;;4973894;28;20127;-69
2023/03/20 02:28:04;;;;;;;1999.90;999.90;;;7.60;99.90;;;;;;4965129;28;20042;-69
2023/03/20 02:31:04;;;;;;;1999.90;999.90;;;7.50;99.90;;;;;;5016555;28;20136;-70
2023/03/20 02:34:12;;;;;;;1999.90;999.90;;;7.60;99.90;;;;;;5063448;28;20408;-69
2023/03/20 02:37:12;;;;;;;1999.90;999.90;;;7.50;99.90;;;;;;5028799;28;20060;-70
2023/03/20 02:40:10;;;;;;;1999.90;999.90;;;7.60;99.90;;;;;;5080183;28;20042;-69
2023/03/20 02:43:01;;;;;;;1999.90;999.90;;;7.60;99.90;;;;;;5078241;28;20044;-69
2023/03/20 02:45:32;;;;;;;1999.90;999.90;;;7.60;99.90;;;;;;5063597;28;20044;-70
2023/03/20 02:48:25;;;;;;;1999.90;999.90;;;7.60;99.90;;;;;;5061745;28;20068;-70
2023/03/20 02:51:11;;;;;;;1999.90;999.90;;;7.60;99.90;;;;;;5062888;28;20044;-70
2023/03/20 02:54:15;;;;;;;1999.90;999.90;;;7.60;99.90;;;;;;5060713;28;20040;-70
2023/03/20 02:57:00;;;;;;;1999.90;999.90;;;7.60;99.90;;;;;;5060110;28;20136;-70
2023/03/20 02:59:54;;;;;;;;;;;7.60;99.90;;;;;;5047818;28;20041;-70
2023/03/20 03:02:34;;;;;;;1999.90;999.90;;;7.60;99.90;;;;;;5059853;28;20226;-69
2023/03/20 03:05:07;;;;;;;1999.90;999.90;;;7.60;99.90;;;;;;5064430;28;20048;-70
2023/03/20 03:07:35;;;;;;;1999.90;999.90;;;7.60;99.90;;;;;;5062037;28;20347;-69
2023/03/20 03:10:12;;;;;;;1999.90;999.90;;;7.60;99.90;;;;;;5065218;28;20072;-69
2023/03/20 03:12:42;;;;;;;1999.90;999.90;;;7.60;99.90;;;;;;5061185;28;20098;-69
2023/03/20 03:15:28;;;;;;;1999.90;999.90;;;7.60;99.90;;;;;;5061817;28;20048;-70
2023/03/20 03:17:57;;;;;;;1999.90;999.90;;;7.60;99.90;;;;;;5064549;28;20086;-69
2023/03/20 03:20:28;;;;;;;1999.90;999.90;;;7.60;99.90;;;;;;5060329;28;20056;-69
2023/03/20 03:22:54;;;;;;;1999.90;999.90;;;7.60;99.90;;;;;;5063552;28;20578;-69
2023/03/20 03:25:24;;;;;;;1999.90;999.90;;;7.60;99.90;;;;;;5063648;28;20032;-70
2023/03/20 03:28:18;;;;;;;1999.90;999.90;;;7.70;99.90;;;;;;5061231;28;20124;-70
2023/03/20 03:30:44;;;;;;;1999.90;999.90;;;7.60;99.90;;;;;;5063325;28;20443;-69
2023/03/20 03:33:21;;;;;;;1999.90;999.90;;;7.70;99.90;;;;;;5045415;28;20041;-70
2023/03/20 03:35:48;;;;;;;1999.90;999.90;;;7.70;99.90;;;;;;5061360;28;20139;-69
2023/03/20 03:38:33;;;;;;;1999.90;999.90;;;7.70;99.90;;;;;;5063354;28;20087;-69
2023/03/20 03:41:20;;;;;;;1999.90;999.90;;;7.70;99.90;;;;;;5063715;28;20091;-69
2023/03/20 03:44:03;;;;;;;1999.90;999.90;;;7.70;99.90;;;;;;5062859;28;20044;-69
2023/03/20 03:46:41;;;;;;;1999.90;999.90;;;7.70;99.90;;;;;;5062175;28;20067;-69
2023/03/20 03:49:11;;;;;;;1999.90;999.90;;;7.70;99.90;;;;;;5064132;28;20036;-69
2023/03/20 03:51:42;;;;;;;1999.90;999.90;;;7.70;99.90;;;;;;5062133;28;20492;-69
2023/03/20 03:54:16;;;;;;;1999.90;999.90;;;7.70;99.90;;;;;;5062600;28;20082;-70
2023/03/20 03:56:45;;;;;;;1999.90;999.90;;;7.70;99.90;;;;;;5061934;28;20040;-70
2023/03/20 03:59:21;;;;;;;1999.90;999.90;;;7.70;99.90;;;;;;5064622;28;20040;-69
2023/03/20 04:01:50;;;;;;;1999.90;999.90;;;7.70;99.90;;;;;;5062261;28;20087;-70
2023/03/20 04:04:17;;;;;;;1999.90;999.90;;;7.70;99.90;;;;;;5048670;28;20036;-69
2023/03/20 04:06:43;;;;;;;1999.90;999.90;;;7.70;99.90;;;;;;5048196;28;20044;-70
2023/03/20 04:09:09;;;;;;;1999.90;999.90;;;7.80;99.90;;;;;;5065715;28;20090;-70
2023/03/20 04:11:34;;;;;;;1999.90;999.90;;;7.80;99.90;;;;;;5064810;28;20554;-69
2023/03/20 04:14:01;;;;;;;1999.90;999.90;;;7.80;99.90;;;;;;5064242;28;20045;-69
2023/03/20 04:16:26;;;;;;;1999.90;999.90;;;7.80;99.90;;;;;;5066141;28;20073;-69
2023/03/20 04:18:54;;;;;;;1999.90;999.90;;;7.80;99.90;;;;;;5064099;28;20040;-69
2023/03/20 04:21:20;;;;;;;1999.90;999.90;;;7.80;99.90;;;;;;5066078;28;20135;-69
2023/03/20 04:23:46;;;;;;;1999.90;999.90;;;7.80;99.90;;;;;;5065069;28;20055;-69
2023/03/20 04:26:12;;;;;;;1999.90;999.90;;;7.80;99.90;;;;;;5062250;28;20036;-70
2023/03/20 04:28:37;;;;;;;1999.90;999.90;;;7.80;99.90;;;;;;5047683;28;20132;-69
2023/03/20 04:31:04;;;;;;;1999.90;999.90;;;7.80;99.90;;;;;;5066085;28;20115;-69
2023/03/20 04:33:29;;;;;;;1999.90;999.90;;;7.80;99.90;;;;;;5048182;28;20082;-69
2023/03/20 04:35:55;;;;;;;1999.90;999.90;;;7.70;99.90;;;;;;5066638;28;21459;-70
2023/03/20 04:38:22;;;;;;;1999.90;999.90;;;7.80;99.90;;;;;;5065504;28;20040;-70
2023/03/20 04:40:47;;;;;;;1999.90;999.90;;;7.70;99.90;;;;;;5066073;28;20037;-70
2023/03/20 04:43:14;;;;;;;1999.90;999.90;;;7.80;99.90;;;;;;5062942;28;20040;-69
2023/03/20 04:45:40;;;;;;;1999.90;999.90;;;7.80;99.90;;;;;;5065288;28;20066;-69
2023/03/20 04:48:07;;;;;;;1999.90;999.90;;;7.80;99.90;;;;;;5047206;28;20466;-70
2023/03/20 04:50:32;;;;;;;1999.90;999.90;;;7.80;99.90;;;;;;5064815;28;20371;-69
2023/03/20 04:52:58;;;;;;;1999.90;999.90;;;7.80;99.90;;;;;;5050601;28;20102;-69
2023/03/20 04:55:24;;;;;;;1999.90;999.90;;;7.80;99.90;;;;;;5046966;28;20366;-69
2023/03/20 04:57:50;;;;;;;1999.90;999.90;;;7.80;99.90;;;;;;5047889;28;20052;-69
2023/03/20 05:00:16;;;;;;;1999.90;999.90;;;7.70;99.90;;;;;;5062250;28;20064;-70
2023/03/20 05:02:42;;;;;;;1999.90;999.90;;;7.80;99.90;;;;;;5063895;28;20097;-69
2023/03/20 05:05:08;;;;;;;1999.90;999.90;;;7.80;99.90;;;;;;5063663;28;20123;-69
2023/03/20 05:07:34;;;;;;;1999.90;999.90;;;7.80;99.90;;;;;;5065124;28;20539;-69
2023/03/20 05:10:00;;;;;;;1999.90;999.90;;;7.80;99.90;;;;;;5064672;28;20064;-69
2023/03/20 05:12:26;;;;;;;1999.90;999.90;;;7.80;99.90;;;;;;5045929;28;20453;-69
2023/03/20 05:14:53;;;;;;;1999.90;999.90;;;7.80;99.90;;;;;;5065970;28;20040;-69
2023/03/20 05:17:20;;;;;;;1999.90;999.90;;;7.80;99.90;;;;;;5063813;28;20040;-69
2023/03/20 05:19:46;;;;;;;1999.90;999.90;;;7.80;99.90;;;;;;5063320;28;20048;-69
2023/03/20 05:22:12;;;;;;;1999.90;999.90;;;7.80;99.90;;;;;;5047540;28;20052;-69
2023/03/20 05:24:37;;;;;;;1999.90;999.90;;;7.80;99.90;;;;;;5047438;28;20039;-69
2023/03/20 05:27:03;;;;;;;1999.90;999.90;;;7.80;99.90;;;;;;5064691;28;20135;-69
2023/03/20 05:29:28;;;;;;;1999.90;999.90;;;7.80;99.90;;;;;;5046935;28;20034;-70
2023/03/20 05:31:54;;;;;;;1999.90;999.90;;;7.70;99.90;;;;;;5064875;28;20521;-69
2023/03/20 05:34:20;;;;;;;1999.90;999.90;;;7.70;99.90;;;;;;5046291;28;21483;-69
2023/03/20 05:36:46;;;;;;;1999.90;999.90;;;7.70;99.90;;;;;;5063255;28;20041;-69
2023/03/20 05:39:12;;;;;;;1999.90;999.90;;;7.70;99.90;;;;;;5045974;28;20413;-70
2023/03/20 05:41:37;;;;;;;1999.90;999.90;;;7.70;99.90;;;;;;5063766;28;20043;-69
2023/03/20 05:44:03;;;;;;;1999.90;999.90;;;7.70;99.90;;;;;;5063091;28;20051;-69
2023/03/20 05:46:29;;;;;;;1999.90;999.90;;;7.70;99.90;;;;;;5047553;28;20036;-70
2023/03/20 05:48:55;;;;;;;1999.90;999.90;;;7.60;99.90;;;;;;5062797;28;20432;-69
2023/03/20 05:51:21;;;;;;;1999.90;999.90;;;7.70;99.90;;;;;;5062476;28;20504;-69
2023/03/20 05:53:46;;;;;;;1999.90;999.90;;;7.60;99.90;;;;;;5062360;28;20155;-70
2023/03/20 05:56:12;;;;;;;1999.90;999.90;;;7.60;99.90;;;;;;5046851;28;20102;-70
2023/03/20 05:58:37;;;;;;;1999.90;999.90;;;7.60;99.90;;;;;;5062401;28;20123;-69
2023/03/20 06:01:03;;;;;;;1999.90;999.90;;;7.60;99.90;;;;;;5063831;28;20040;-69
2023/03/20 06:03:29;;;;;;;1999.90;999.90;;;7.60;99.90;;;;;;5062186;28;20562;-69
2023/03/20 06:05:55;;;;;;;1999.90;999.90;;;7.60;99.90;;;;;;5063139;28;20064;-69
2023/03/20 06:08:20;;;;;;;1999.90;999.90;;;7.60;99.90;;;;;;5064323;28;20032;-70
2023/03/20 06:10:48;;;;;;;1999.90;999.90;;;7.60;99.90;;;;;;5062995;28;20044;-69
2023/03/20 06:13:14;;;;;;;1999.90;999.90;;;7.60;99.90;;;;;;5062652;28;20443;-70
2023/03/20 06:15:40;;;;;;;1999.90;999.90;;;7.60;99.90;;;;;;5062081;28;20055;-70
2023/03/20 06:18:05;;;;;;;1999.90;999.90;;;7.60;99.90;;;;;;5063372;28;21193;-69
2023/03/20 06:20:31;;;;;;;1999.90;999.90;;;7.70;99.90;;;;;;5067846;28;20157;-69
2023/03/20 06:22:57;;;;;;;1999.90;999.90;;;7.70;99.90;;;;;;5063183;28;20044;-69
2023/03/20 06:25:22;;;;;;;1999.90;999.90;;;7.70;99.90;;;;;;5045757;28;20045;-69
2023/03/20 06:27:48;;;;;;;1999.90;999.90;;;7.70;99.90;;;;;;5044491;28;20048;-70
2023/03/20 06:30:15;;;;;;;1999.90;999.90;;;7.70;99.90;;;;;;5044693;28;20068;-70
2023/03/20 06:32:41;;;;;;;1999.90;999.90;;;7.80;99.90;;;;;;5064322;28;20094;-68
2023/03/20 06:35:08;;;;;;;1999.90;999.90;;;7.80;99.90;;;;;;5064627;28;20082;-69
2023/03/20 06:37:35;;;;;;;1999.90;999.90;;;7.90;99.90;;;;;;5061083;28;20071;-69
2023/03/20 06:40:02;;;;;;;1999.90;999.90;;;7.90;99.90;;;;;;5061798;28;20061;-69
2023/03/20 06:42:28;;;;;;;1999.90;999.90;;;7.90;99.90;;;;;;5063184;28;20048;-69
2023/03/20 06:44:55;;;;;;;1999.90;999.90;;;7.90;99.90;;;;;;5062708;28;20074;-70
2023/03/20 06:47:21;;;;;;;1999.90;999.90;;;8.00;99.90;;;;;;5063921;28;20059;-69
2023/03/20 06:49:47;;;;;;;1999.90;999.90;;;8.00;99.90;;;;;;5063706;28;20049;-69
2023/03/20 06:52:18;;;;;;;1999.90;999.90;;;8.00;99.90;;;;;;5061609;28;20032;-69
2023/03/20 06:54:44;;;;;;;1999.90;999.90;;;8.00;99.90;;;;;;5042959;28;20060;-69
2023/03/20 06:57:10;;;;;;;1999.90;999.90;;;8.00;99.90;;;;;;5046914;28;20049;-69
2023/03/20 06:59:36;;;;;;;1999.90;999.90;;;8.10;99.90;;;;;;5064410;28;20593;-69
2023/03/20 07:02:02;;;;;;;1999.90;999.90;;;8.10;99.90;;;;;;5062850;28;20044;-70
2023/03/20 07:04:28;;;;;;;1999.90;999.90;;;8.10;99.90;;;;;;5061370;28;20040;-69
2023/03/20 07:06:54;;;;;;;1999.90;999.90;;;8.10;99.90;;;;;;5047240;28;20586;-69
2023/03/20 07:09:21;;;;;;;1999.90;999.90;;;8.20;99.90;;;;;;5064380;28;20029;-69
2023/03/20 07:11:47;;;;;;;1999.90;999.90;;;8.30;99.90;;;;;;5063038;28;20040;-69
2023/03/20 07:14:13;;;;;;;1999.90;999.90;;;8.30;99.90;;;;;;5045416;28;20047;-70
2023/03/20 07:16:39;;;;;;;1999.90;999.90;;;8.40;99.90;;;;;;5060381;28;20124;-69
2023/03/20 07:19:05;;;;;;;1999.90;999.90;;;8.50;99.90;;;;;;5063514;28;20131;-69
2023/03/20 07:21:30;;;;;;;1999.90;999.90;;;8.50;99.90;;;;;;5061989;28;20064;-70
2023/03/20 07:23:56;;;;;;;1999.90;999.90;;;8.60;99.90;;;;;;5063951;28;20029;-69
2023/03/20 07:26:22;;;;;;;1999.90;999.90;;;8.70;99.90;;;;;;5063920;28;20123;-69
2023/03/20 07:28:48;;;;;;;1999.90;999.90;;;8.80;99.90;;;;;;5062825;28;20550;-69
2023/03/20 07:31:23;;;;;;;1999.90;999.90;;;8.90;99.90;;;;;;5036391;28;20033;-70
2023/03/20 07:33:49;;;;;;;1999.90;999.90;;;8.90;99.90;;;;;;5056719;28;20584;-70
2023/03/20 07:36:15;;;;;;;1999.90;999.90;;;8.90;99.90;;;;;;5061366;28;20043;-70
2023/03/20 07:38:40;;;;;;;1999.90;999.90;;;9.00;99.90;;;;;;5061846;28;20222;-69
2023/03/20 07:41:06;;;;;;;1999.90;999.90;;;9.00;99.90;;;;;;5059445;28;20040;-70
2023/03/20 07:43:32;;;;;;;1999.90;999.90;;;9.00;99.90;;;;;;5059043;28;20382;-70
2023/03/20 07:46:04;;;;;;;1999.90;999.90;;;9.10;99.90;;;;;;5039008;28;20139;-70
2023/03/20 07:48:30;;;;;;;1999.90;999.90;;;9.10;99.90;;;;;;5056967;28;20499;-70
2023/03/20 07:50:55;;;;;;;1999.90;999.90;;;9.20;99.90;;;;;;5063178;28;20036;-69
2023/03/20 07:53:21;;;;;;;1999.90;999.90;;;9.20;99.90;;;;;;5062503;28;20037;-70
2023/03/20 07:55:46;;;;;;;1999.90;999.90;;;9.20;99.90;;;;;;5064525;28;20135;-70
2023/03/20 07:58:12;;;;;;;1999.90;999.90;;;9.20;99.90;;;;;;5050287;28;20094;-69
2023/03/20 08:00:38;;;;;;;1999.90;999.90;;;9.20;99.90;;;;;;5064101;28;20516;-70
2023/03/20 08:03:04;;;;;;;1999.90;999.90;;;9.30;99.90;;;;;;5062170;28;20542;-70
2023/03/20 08:05:30;;;;;;;1999.90;999.90;;;9.20;99.90;;;;;;5065725;28;20047;-69
2023/03/20 08:07:55;;;;;;;1999.90;999.90;;;9.20;99.90;;;;;;5065046;28;20405;-69
2023/03/20 08:10:21;;;;;;;1999.90;999.90;;;9.30;99.90;;;;;;5063118;28;20123;-69
2023/03/20 08:12:47;;;;;;;1999.90;999.90;;;9.30;99.90;;;;;;5041790;28;20052;-70
2023/03/20 08:15:12;;;;;;;1999.90;999.90;;;9.40;99.90;;;;;;5066690;28;20568;-70
2023/03/20 08:17:43;;;;;;;1999.90;999.90;;;9.50;99.90;;;;;;5052063;28;20048;-69
2023/03/20 08:20:09;;;;;;;1999.90;999.90;;;9.50;99.90;;;;;;5067080;28;20056;-70
2023/03/20 08:22:35;;;;;;;1999.90;999.90;;;9.50;99.90;;;;;;5066703;28;20729;-69
2023/03/20 08:25:01;;;;;;;1999.90;999.90;;;9.50;99.90;;;;;;5064828;28;20040;-69
2023/03/20 08:27:26;;;;;;;1999.90;999.90;;;9.50;99.90;;;;;;5065011;28;20044;-69
2023/03/20 08:29:52;;;;;;;1999.90;999.90;;;9.60;99.90;;;;;;5060804;28;22211;-70
2023/03/20 08:32:18;;;;;;;1999.90;999.90;;;9.60;99.90;;;;;;5067192;28;20044;-70
2023/03/20 08:34:43;;;;;;;1999.90;999.90;;;9.60;99.90;;;;;;5049051;28;20469;-70
2023/03/20 08:37:11;;;;;;;1999.90;999.90;;;9.60;99.90;;;;;;5063065;28;20041;-70
2023/03/20 08:39:38;;;;;;;1999.90;999.90;;;9.60;99.90;;;;;;5066247;28;20052;-70
2023/03/20 08:42:04;;;;;;;1999.90;999.90;;;9.60;99.90;;;;;;5065324;28;20063;-70
2023/03/20 08:44:30;;;;;;;1999.90;999.90;;;9.60;99.90;;;;;;5040593;28;20082;-70
2023/03/20 08:46:56;;;;;;;1999.90;999.90;;;9.60;99.90;;;;;;5064194;28;20512;-70
2023/03/20 08:49:22;;;;;;;1999.90;999.90;;;9.60;99.90;;;;;;5062718;28;20036;-70
2023/03/20 08:51:47;;;;;;;1999.90;999.90;;;9.70;99.90;;;;;;5065704;28;20048;-70
2023/03/20 08:54:15;;;;;;;1999.90;999.90;;;9.70;99.90;;;;;;5065180;28;20039;-69
2023/03/20 08:56:41;;;;;;;1999.90;999.90;;;9.80;99.90;;;;;;5064509;28;20044;-70
2023/03/20 08:59:06;;;;;;;1999.90;999.90;;;9.80;99.90;;;;;;5062354;28;20519;-70
2023/03/20 09:01:32;;;;;;;1999.90;999.90;;;9.80;99.90;;;;;;5063555;28;20048;-70
2023/03/20 09:03:57;;;;;;;1999.90;999.90;;;9.90;99.90;;;;;;5053205;28;20037;-70
2023/03/20 09:06:23;;;;;;;1999.90;999.90;;;10.00;99.90;;;;;;5058171;28;20041;-70
2023/03/20 09:08:49;;;;;;;1999.90;999.90;;;10.10;99.90;;;;;;5057226;28;20032;-70
2023/03/20 09:11:14;;;;;;;1999.90;999.90;;;10.20;99.90;;;;;;5058280;28;20037;-69
2023/03/20 09:13:40;;;;;;;1999.90;999.90;;;10.30;99.90;;;;;;5055865;28;20510;-70
2023/03/20 09:16:06;;;;;;;1999.90;999.90;;;10.40;99.90;;;;;;5045035;28;20127;-71
2023/03/20 09:18:32;;;;;;;1999.90;999.90;;;10.40;99.90;;;;;;5062300;28;20048;-70
2023/03/20 09:20:57;;;;;;;1999.90;999.90;;;10.50;99.90;;;;;;5047093;28;20045;-69
2023/03/20 09:23:23;;;;;;;1999.90;999.90;;;10.50;99.90;;;;;;5043158;28;20044;-70
2023/03/20 09:25:49;;;;;;;1999.90;999.90;;;10.50;99.90;;;;;;5041626;28;20127;-70
2023/03/20 09:28:14;;;;;;;1999.90;999.90;;;10.50;99.90;;;;;;5058685;28;20471;-70
2023/03/20 09:30:42;;;;;;;1999.90;999.90;;;10.60;99.90;;;;;;5055065;28;20036;-70
2023/03/20 09:33:08;;;;;;;1999.90;999.90;;;10.60;99.90;;;;;;5066155;28;20405;-70
2023/03/20 09:35:34;;;;;;;1999.90;999.90;;;10.60;99.90;;;;;;5065634;28;20114;-69
2023/03/20 09:37:59;;;;;;;1999.90;999.90;;;10.60;99.90;;;;;;5066397;28;20489;-70
2023/03/20 09:40:40;;;;;;;1999.90;999.90;;;10.70;99.90;;;;;;5063708;28;20511;-69
2023/03/20 09:43:16;;;;;;;1999.90;999.90;;;10.70;99.90;;;;;;5049587;28;20044;-69
2023/03/20 09:45:48;;;;;;;1999.90;999.90;;;10.70;99.90;;;;;;5054928;28;20416;-70
2023/03/20 09:48:34;;;;;;;1999.90;999.90;;;10.60;99.90;;;;;;5069430;28;20040;-69
2023/03/20 09:51:24;;;;;;;1999.90;999.90;;;10.70;99.90;;;;;;5064030;28;20043;-71
2023/03/20 09:53:58;;;;;;;1999.90;999.90;;;10.70;99.90;;;;;;5061847;28;20569;-69
2023/03/20 09:56:26;;;;;;;1999.90;999.90;;;10.70;99.90;;;;;;5048130;28;20047;-70
2023/03/20 09:59:01;;;;;;;1999.90;999.90;;;10.80;99.90;;;;;;5048908;28;20105;-70
2023/03/20 10:01:31;;;;;;;1999.90;999.90;;;11.00;99.90;;;;;;5039367;28;20099;-70
2023/03/20 10:04:00;;;;;;;1999.90;999.90;;;11.20;99.90;;;;;;5064972;28;20055;-70
2023/03/20 10:06:26;;;;;;;1999.90;999.90;;;11.30;99.90;;;;;;5064658;28;20128;-69
2023/03/20 10:08:52;;;;;;;1999.90;999.90;;;11.40;99.90;;;;;;5047408;28;20043;-69
2023/03/20 10:11:48;;;;;;;1999.90;999.90;;;11.50;99.90;;;;;;5066029;28;20119;-70
2023/03/20 10:14:31;;;;;;;1999.90;999.90;;;11.40;99.90;;;;;;5061757;28;20040;-69
2023/03/20 10:17:16;;;;;;;1999.90;999.90;;;11.40;99.90;;;;;;5040942;28;20040;-70
2023/03/20 10:19:49;;;;;;;1999.90;999.90;;;11.30;99.90;;;;;;5064738;28;20053;-70
2023/03/20 10:22:46;;;;;;;1999.90;999.90;;;11.40;99.90;;;;;;5064959;28;20056;-70
2023/03/20 10:25:11;;;;;;;1999.90;999.90;;;11.30;99.90;;;;;;5063410;28;20496;-69
2023/03/20 10:27:54;;;;;;;1999.90;999.90;;;11.20;99.90;;;;;;5059238;28;20140;-70
2023/03/20 10:30:42;;;;;;;1999.90;999.90;;;11.10;99.90;;;;;;5062705;28;20048;-69
2023/03/20 10:33:25;;;;;;;1999.90;999.90;;;11.00;99.90;;;;;;5061509;28;20055;-69
2023/03/20 10:36:15;;;;;;;1999.90;999.90;;;11.00;99.90;;;;;;5063210;28;20078;-70
2023/03/20 10:39:09;;;;;;;1999.90;999.90;;;11.10;99.90;;;;;;5061501;28;20048;-69
2023/03/20 10:41:38;;;;;;;1999.90;999.90;;;11.20;99.90;;;;;;5064119;28;20052;-69
2023/03/20 10:44:05;;;;;;;1999.90;999.90;;;11.30;99.90;;;;;;5058584;28;20072;-70
2023/03/20 10:46:49;;;;;;;1999.90;999.90;;;11.40;99.90;;;;;;5062660;28;20048;-69
2023/03/20 10:49:19;;;;;;;1999.90;999.90;;;11.40;99.90;;;;;;5066496;28;20036;-70
2023/03/20 10:51:53;;;;;;;1999.90;999.90;;;11.30;99.90;;;;;;5058977;28;20397;-70
2023/03/20 10:54:44;;;;;;;1999.90;999.90;;;11.30;99.90;;;;;;5060530;28;20075;-70
2023/03/20 10:57:21;;;;;;;1999.90;999.90;;;11.20;99.90;;;;;;5038623;28;20126;-69
2023/03/20 10:59:49;;;;;;;1999.90;999.90;;;11.20;99.90;;;;;;5063923;28;20063;-69
2023/03/20 11:02:17;;;;;;;1999.90;999.90;;;11.10;99.90;;;;;;5063587;28;20044;-69
2023/03/20 11:04:43;;;;;;;1999.90;999.90;;;11.10;99.90;;;;;;5064053;28;20044;-70
2023/03/20 11:07:24;;;;;;;1999.90;999.90;;;11.10;99.90;;;;;;5062655;28;20511;-69
2023/03/20 11:10:05;;;;;;;1999.90;999.90;;;10.90;99.90;;;;;;5059286;28;20487;-70
2023/03/20 11:12:35;;;;;;;1999.90;999.90;;;10.70;99.90;;;;;;5066606;28;20294;-69
2023/03/20 11:15:15;;;;;;;1999.90;999.90;;;10.60;99.90;;;;;;5066667;28;20040;-69
2023/03/20 11:17:41;;;;;;;1999.90;999.90;;;10.50;99.90;;;;;;5049910;28;20044;-69
2023/03/20 11:20:09;;;;;;;1999.90;999.90;;;10.60;99.90;;;;;;5067576;28;20098;-70
2023/03/20 11:22:36;;;;;;;1999.90;999.90;;;10.70;99.90;;;;;;5067650;28;20049;-70
2023/03/20 11:25:04;;;;;;;1999.90;999.90;;;10.60;99.90;;;;;;5049052;28;20032;-69
2023/03/20 11:27:34;;;;;;;1999.90;999.90;;;10.70;99.90;;;;;;5043891;28;20041;-70
2023/03/20 11:30:04;;;;;;;1999.90;999.90;;;10.60;99.90;;;;;;5070988;28;20493;-70
2023/03/20 11:32:38;;;;;;;1999.90;999.90;;;10.60;99.90;;;;;;5067392;28;20433;-70
2023/03/20 11:35:25;;;;;;;1999.90;999.90;;;10.50;99.90;;;;;;5065558;28;20033;-70
2023/03/20 11:37:52;;;;;;;1999.90;999.90;;;10.50;99.90;;;;;;5063399;28;20431;-70
2023/03/20 11:40:23;;;;;;;1999.90;999.90;;;10.40;99.90;;;;;;5061300;28;20466;-70
2023/03/20 11:43:04;;;;;;;1999.90;999.90;;;10.40;99.90;;;;;;5067906;28;20403;-70
2023/03/20 11:45:39;;;;;;;1999.90;999.90;;;10.40;99.90;;;;;;5049560;28;20480;-70
2023/03/20 11:48:13;;;;;;;1999.90;999.90;;;10.30;99.90;;;;;;5048003;28;20036;-70
2023/03/20 11:51:04;;;;;;;1999.90;999.90;;;10.30;99.90;;;;;;5066223;28;20066;-71
2023/03/20 11:54:02;;;;;;;1999.90;999.90;;;10.30;99.90;;;;;;5061490;28;20172;-70
2023/03/20 11:56:31;;;;;;;1999.90;999.90;;;10.30;99.90;;;;;;5033305;28;20051;-70
2023/03/20 11:59:13;;;;;;;1999.90;999.90;;;10.30;99.90;;;;;;5055363;28;20052;-70
2023/03/20 12:01:45;;;;;;;1999.90;999.90;;;10.30;99.90;;;;;;5055585;28;20076;-70
2023/03/20 12:04:33;;;;;;;1999.90;999.90;;;10.30;99.90;;;;;;5062977;28;20076;-70
2023/03/20 12:07:26;;;;;;;1999.90;999.90;;;10.30;99.90;;;;;;5046715;28;20047;-70
2023/03/20 12:10:10;;;;;;;1999.90;999.90;;;10.30;99.90;;;;;;5063234;28;20047;-70
2023/03/20 12:12:55;;;;;;;1999.90;999.90;;;10.30;99.90;;;;;;5056504;28;20631;-70
2023/03/20 12:15:26;;;;;;;1999.90;999.90;;;10.20;99.90;;;;;;5057765;28;20071;-70
2023/03/20 12:18:29;;;;;;;1999.90;999.90;;;10.10;99.90;;;;;;5043320;28;20051;-70
2023/03/20 12:21:14;;;;;;;1999.90;999.90;;;10.00;99.90;;;;;;5057693;28;20060;-70
2023/03/20 12:23:47;;;;;;;1999.90;999.90;;;9.90;99.90;;;;;;5063257;28;20080;-70
2023/03/20 12:26:27;;;;;;;1999.90;999.90;;;9.90;99.90;;;;;;5059162;28;20040;-70